createdAt,value
2019-05-15T00:01:08.981Z,0.73
2019-05-15T00:03:39.348Z,0.40
2019-05-15T00:06:09.266Z,0.20
2019-05-15T00:08:38.962Z,0.60
2019-05-15T00:11:08.641Z,0.47
2019-05-15T00:13:39.139Z,0.33
2019-05-15T00:16:09.010Z,0.37
2019-05-15T00:18:39.203Z,0.20
2019-05-15T00:21:09.469Z,0.30
2019-05-15T00:23:39.369Z,0.30
2019-05-15T00:26:09.460Z,0.20
2019-05-15T00:28:39.346Z,0.60
2019-05-15T00:31:09.283Z,0.33
2019-05-15T00:33:39.519Z,0.50
2019-05-15T00:36:09.488Z,0.23
2019-05-15T00:38:39.312Z,0.10
2019-05-15T00:41:09.580Z,0.10
2019-05-15T00:43:39.476Z,0.00
2019-05-15T00:46:09.434Z,0.10
2019-05-15T00:48:40.012Z,0.20
2019-05-15T00:51:09.805Z,0.17
2019-05-15T00:53:39.552Z,0.20
2019-05-15T00:56:09.218Z,0.10
2019-05-15T00:58:40.217Z,0.20
2019-05-15T01:01:10.161Z,0.10
2019-05-15T01:03:39.941Z,0.10
2019-05-15T01:06:09.622Z,0.20
2019-05-15T01:08:39.532Z,0.70
2019-05-15T01:11:09.406Z,0.03
2019-05-15T01:13:39.180Z,0.03
2019-05-15T01:16:09.282Z,0.10
2019-05-15T01:18:39.440Z,0.20
2019-05-15T01:21:09.114Z,0.10
2019-05-15T01:23:39.937Z,0.20
2019-05-15T01:26:09.698Z,0.00
2019-05-15T01:28:39.490Z,0.03
2019-05-15T01:31:09.169Z,0.30
2019-05-15T01:33:39.333Z,0.10
2019-05-15T01:36:09.937Z,0.07
2019-05-15T01:38:39.621Z,0.10
2019-05-15T01:41:09.879Z,0.10
2019-05-15T01:43:40.597Z,0.10
2019-05-15T01:46:10.251Z,0.10
2019-05-15T01:48:39.989Z,0.10
2019-05-15T01:51:10.623Z,0.33
2019-05-15T01:53:40.321Z,0.20
2019-05-15T01:56:10.041Z,0.10
2019-05-15T01:58:39.709Z,0.00
2019-05-15T02:01:09.409Z,0.50
2019-05-15T02:03:39.105Z,0.33
2019-05-15T02:06:08.886Z,0.50
2019-05-15T02:08:39.433Z,0.20
2019-05-15T02:11:09.441Z,0.10
2019-05-15T02:13:39.293Z,0.50
2019-05-15T02:16:09.236Z,0.10
2019-05-15T02:18:39.378Z,0.20
2019-05-15T02:21:10.320Z,0.10
2019-05-15T02:23:40.624Z,0.10
2019-05-15T02:26:10.289Z,0.00
2019-05-15T02:28:40.055Z,0.10
2019-05-15T02:31:10.711Z,0.17
2019-05-15T02:33:40.570Z,0.00
2019-05-15T02:36:10.398Z,0.30
2019-05-15T02:38:41.312Z,0.10
2019-05-15T02:41:11.112Z,0.80
2019-05-15T02:43:41.854Z,0.10
2019-05-15T02:46:11.490Z,0.27
2019-05-15T02:48:41.287Z,0.50
2019-05-15T02:51:11.005Z,0.60
2019-05-15T02:53:41.057Z,0.10
2019-05-15T02:56:10.743Z,0.17
2019-05-15T02:58:40.525Z,0.30
2019-05-15T03:01:10.375Z,0.30
2019-05-15T03:03:40.272Z,0.10
2019-05-15T03:06:10.303Z,0.17
2019-05-15T03:08:40.405Z,0.10
2019-05-15T03:11:10.227Z,0.20
2019-05-15T03:13:40.077Z,0.10
2019-05-15T03:16:10.277Z,0.10
2019-05-15T03:18:40.170Z,0.00
2019-05-15T03:21:10.097Z,0.10
2019-05-15T03:23:40.735Z,0.60
2019-05-15T03:26:11.825Z,0.50
2019-05-15T03:28:41.477Z,0.40
2019-05-15T03:31:33.268Z,0.10
2019-05-15T03:33:45.930Z,0.20
2019-05-15T03:36:14.321Z,0.13
2019-05-15T03:38:44.108Z,0.10
2019-05-15T03:41:13.769Z,0.00
2019-05-15T03:43:43.505Z,0.00
2019-05-15T03:46:13.169Z,0.00
2019-05-15T03:48:43.294Z,0.10
2019-05-15T03:51:12.956Z,0.30
2019-05-15T03:53:42.696Z,1.00
2019-05-15T03:56:12.375Z,0.10
2019-05-15T03:58:42.197Z,0.23
2019-05-15T04:01:28.352Z,0.30
2019-05-15T04:03:43.317Z,0.30
2019-05-15T04:06:12.987Z,0.63
2019-05-15T04:08:43.789Z,0.63
2019-05-15T04:11:13.456Z,0.60
2019-05-15T04:13:43.267Z,0.80
2019-05-15T04:19:13.317Z,0.70
2019-05-15T04:21:45.204Z,0.50
2019-05-15T04:24:15.003Z,0.80
2019-05-15T04:26:48.664Z,0.60
2019-05-15T04:29:19.526Z,0.87
2019-05-15T04:32:00.695Z,0.70
2019-05-15T04:34:21.745Z,0.70
2019-05-15T04:36:51.442Z,1.13
2019-05-15T04:39:21.096Z,0.90
2019-05-15T04:41:50.790Z,0.90
2019-05-15T04:44:20.453Z,0.80
2019-05-15T04:46:51.172Z,1.00
2019-05-15T04:49:20.831Z,0.70
2019-05-15T04:51:50.539Z,0.80
2019-05-15T04:54:20.344Z,0.90
2019-05-15T04:56:50.036Z,0.70
2019-05-15T04:59:20.039Z,0.67
2019-05-15T05:01:51.530Z,0.93
2019-05-15T05:04:21.376Z,0.90
2019-05-15T05:06:53.136Z,1.00
2019-05-15T05:09:22.881Z,0.80
2019-05-15T05:11:52.542Z,0.70
2019-05-15T05:14:22.286Z,0.97
2019-05-15T05:16:51.966Z,0.97
2019-05-15T05:19:21.636Z,1.00
2019-05-15T05:21:51.322Z,1.10
2019-05-15T05:24:21.050Z,1.00
2019-05-15T05:26:50.720Z,1.10
2019-05-15T05:29:20.476Z,1.07
2019-05-15T05:31:50.183Z,0.90
2019-05-15T05:34:19.901Z,1.30
2019-05-15T05:36:49.598Z,0.93
2019-05-15T05:39:20.043Z,0.80
2019-05-15T05:41:50.064Z,1.10
2019-05-15T05:44:19.830Z,1.30
2019-05-15T05:46:49.574Z,1.20
2019-05-15T05:49:19.245Z,1.00
2019-05-15T05:51:49.001Z,1.20
2019-05-15T05:54:18.705Z,1.20
2019-05-15T05:56:48.504Z,2.27
2019-05-15T05:59:18.564Z,1.30
2019-05-15T06:01:48.672Z,1.10
2019-05-15T06:04:19.297Z,0.90
2019-05-15T06:07:06.260Z,1.07
2019-05-15T06:09:20.378Z,1.20
2019-05-15T06:11:50.061Z,1.00
2019-05-15T06:14:19.827Z,0.90
2019-05-15T06:16:49.553Z,1.20
2019-05-15T06:19:19.226Z,1.13
2019-05-15T06:21:56.843Z,1.10
2019-05-15T06:24:20.382Z,1.00
2019-05-15T06:26:51.062Z,0.90
2019-05-15T06:29:20.747Z,0.80
2019-05-15T06:31:50.565Z,0.93
2019-05-15T06:34:20.327Z,1.00
2019-05-15T06:36:49.994Z,1.10
2019-05-15T06:39:19.676Z,1.10
2019-05-15T06:41:49.364Z,1.20
2019-05-15T06:44:19.076Z,1.20
2019-05-15T06:46:48.727Z,1.50
2019-05-15T06:49:18.442Z,1.20
2019-05-15T06:51:48.704Z,1.27
2019-05-15T06:54:19.026Z,1.10
2019-05-15T06:56:49.242Z,1.20
2019-05-15T06:59:19.297Z,1.00
2019-05-15T07:01:48.976Z,1.30
2019-05-15T07:04:18.704Z,1.10
2019-05-15T07:06:48.873Z,1.23
2019-05-15T07:09:18.830Z,1.10
2019-05-15T07:11:48.556Z,1.73
2019-05-15T07:14:18.307Z,1.20
2019-05-15T07:16:48.911Z,1.10
2019-05-15T07:19:19.197Z,1.13
2019-05-15T07:21:49.946Z,1.20
2019-05-15T07:24:19.638Z,1.20
2019-05-15T07:26:49.309Z,1.00
2019-05-15T07:29:19.125Z,1.10
2019-05-15T07:31:48.801Z,0.90
2019-05-15T07:34:19.564Z,0.90
2019-05-15T07:36:49.487Z,1.10
2019-05-15T07:39:20.239Z,1.10
2019-05-15T07:41:49.915Z,1.00
2019-05-15T07:44:19.595Z,1.00
2019-05-15T07:46:49.317Z,1.00
2019-05-15T07:49:19.000Z,1.10
2019-05-15T07:51:49.114Z,1.00
2019-05-15T07:54:21.638Z,1.10
2019-05-15T07:56:51.304Z,1.20
2019-05-15T07:59:20.963Z,1.27
2019-05-15T08:01:50.833Z,0.90
2019-05-15T08:04:28.893Z,0.90
2019-05-15T08:06:52.061Z,1.10
2019-05-15T08:09:22.012Z,1.43
2019-05-15T08:11:51.740Z,1.10
2019-05-15T08:14:21.434Z,1.00
2019-05-15T08:16:51.117Z,1.00
2019-05-15T08:19:20.903Z,0.80
2019-05-15T08:21:51.819Z,1.10
2019-05-15T08:24:21.917Z,0.90
2019-05-15T08:26:51.571Z,2.20
2019-05-15T08:29:21.910Z,0.93
2019-05-15T08:31:52.937Z,1.00
2019-05-15T08:34:22.584Z,1.00
2019-05-15T08:36:52.715Z,0.70
2019-05-15T08:39:22.673Z,1.00
2019-05-15T08:41:52.351Z,1.10
2019-05-15T08:44:22.039Z,0.97
2019-05-15T08:46:51.936Z,0.80
2019-05-15T08:49:21.566Z,1.00
2019-05-15T08:51:51.304Z,1.23
2019-05-15T08:54:20.993Z,0.93
2019-05-15T08:56:50.735Z,0.93
2019-05-15T08:59:20.429Z,1.00
2019-05-15T09:01:50.104Z,0.80
2019-05-15T09:04:30.814Z,0.93
2019-05-15T09:06:51.285Z,0.90
2019-05-15T09:09:20.977Z,1.23
2019-05-15T09:11:50.733Z,1.00
2019-05-15T09:14:20.435Z,0.80
2019-05-15T09:16:50.198Z,0.90
2019-05-15T09:19:19.966Z,0.90
2019-05-15T09:21:49.700Z,0.90
2019-05-15T09:24:19.972Z,1.10
2019-05-15T09:26:50.013Z,1.00
2019-05-15T09:29:19.691Z,0.73
2019-05-15T09:31:49.365Z,0.97
2019-05-15T09:34:19.065Z,0.90
2019-05-15T09:36:48.831Z,0.90
2019-05-15T09:39:18.782Z,1.00
2019-05-15T09:41:48.901Z,1.23
2019-05-15T09:44:21.801Z,0.87
2019-05-15T09:46:50.186Z,1.50
2019-05-15T09:49:19.858Z,0.90
2019-05-15T09:51:49.573Z,0.97
2019-05-15T09:54:19.593Z,0.90
2019-05-15T09:56:49.619Z,0.83
2019-05-15T09:59:19.364Z,0.93
2019-05-15T10:01:49.023Z,0.73
2019-05-15T10:04:19.175Z,0.83
2019-05-15T10:06:49.292Z,1.03
2019-05-15T10:09:22.462Z,0.87
2019-05-15T10:11:52.134Z,1.20
2019-05-15T10:14:21.809Z,1.00
2019-05-15T10:16:51.494Z,1.00
2019-05-15T10:19:22.155Z,1.40
2019-05-15T10:21:53.476Z,0.93
2019-05-15T10:24:23.231Z,1.20
2019-05-15T10:26:52.927Z,1.10
2019-05-15T10:29:22.631Z,0.97
2019-05-15T10:31:52.327Z,1.27
2019-05-15T10:34:22.969Z,1.17
2019-05-15T10:36:52.750Z,1.07
2019-05-15T10:39:22.443Z,1.10
2019-05-15T10:41:52.230Z,1.00
2019-05-15T10:44:21.905Z,1.50
2019-05-15T10:46:51.590Z,1.47
2019-05-15T10:49:21.397Z,2.13
2019-05-15T10:51:51.102Z,1.67
2019-05-15T10:54:20.834Z,1.47
2019-05-15T10:56:50.534Z,2.30
2019-05-15T10:59:20.204Z,2.00
2019-05-15T11:01:49.882Z,1.20
2019-05-15T11:04:19.547Z,0.83
2019-05-15T11:06:49.274Z,1.00
2019-05-15T11:09:19.857Z,0.90
2019-05-15T11:11:51.670Z,1.03
2019-05-15T11:14:22.079Z,1.13
2019-05-15T11:16:51.764Z,0.87
2019-05-15T11:19:21.434Z,0.80
2019-05-15T11:21:51.141Z,1.00
2019-05-15T11:24:20.808Z,0.90
2019-05-15T11:26:50.499Z,1.03
2019-05-15T11:29:20.160Z,1.20
2019-05-15T11:31:49.838Z,1.10
2019-05-15T11:34:19.499Z,0.87
2019-05-15T11:36:49.205Z,1.00
2019-05-15T11:39:18.987Z,1.10
2019-05-15T11:41:49.451Z,1.17
2019-05-15T11:44:20.412Z,1.40
2019-05-15T11:46:50.097Z,1.00
2019-05-15T11:49:19.780Z,0.93
2019-05-15T11:51:49.502Z,0.90
2019-05-15T11:54:19.358Z,1.10
2019-05-15T11:56:49.315Z,0.90
2019-05-15T11:59:19.313Z,0.90
2019-05-15T12:01:49.090Z,1.00
2019-05-15T12:04:27.763Z,1.00
2019-05-15T12:07:01.510Z,0.80
2019-05-15T12:09:22.863Z,0.97
2019-05-15T12:11:52.526Z,1.00
2019-05-15T12:14:22.187Z,0.93
2019-05-15T12:17:05.152Z,1.10
2019-05-15T12:19:23.245Z,1.00
2019-05-15T12:21:52.942Z,1.10
2019-05-15T12:24:22.717Z,1.03
2019-05-15T12:26:52.431Z,1.17
2019-05-15T12:29:22.154Z,1.00
2019-05-15T12:31:51.855Z,1.17
2019-05-15T12:34:21.519Z,1.20
2019-05-15T12:36:57.390Z,1.00
2019-05-15T12:39:22.571Z,1.00
2019-05-15T12:59:40.479Z,0.97
2019-05-15T13:02:04.280Z,1.00
2019-05-15T13:04:33.973Z,0.90
2019-05-15T13:07:12.838Z,1.00
2019-05-15T13:09:35.026Z,1.10
2019-05-15T13:12:04.802Z,1.10
2019-05-15T13:14:34.632Z,1.37
2019-05-15T13:17:04.291Z,0.80
2019-05-15T13:19:33.997Z,0.90
2019-05-15T13:22:16.199Z,0.80
2019-05-15T13:24:35.120Z,1.00
2019-05-15T13:27:04.767Z,1.10
2019-05-15T13:29:34.470Z,1.00
2019-05-15T13:32:04.223Z,0.90
2019-05-15T13:34:33.976Z,0.80
2019-05-15T13:37:03.646Z,1.00
2019-05-15T13:39:33.348Z,0.80
2019-05-15T13:42:03.170Z,0.60
2019-05-15T13:44:32.888Z,1.10
2019-05-15T13:47:02.544Z,1.00
2019-05-15T13:49:32.256Z,0.80
2019-05-15T13:52:01.969Z,0.70
2019-05-15T13:54:31.657Z,1.00
2019-05-15T13:57:01.374Z,0.70
2019-05-15T13:59:31.082Z,0.67
2019-05-15T14:02:00.759Z,0.90
2019-05-15T14:04:30.500Z,1.00
2019-05-15T14:07:00.189Z,0.70
2019-05-15T14:09:33.603Z,0.87
2019-05-15T14:12:01.252Z,0.90
2019-05-15T14:14:31.015Z,0.60
2019-05-15T14:17:00.691Z,0.73
2019-05-15T14:19:30.391Z,0.60
2019-05-15T14:22:00.108Z,0.77
2019-05-15T14:24:29.803Z,0.80
2019-05-15T14:26:59.524Z,0.90
2019-05-15T14:29:29.372Z,0.70
2019-05-15T14:31:59.149Z,0.70
2019-05-15T14:34:29.149Z,0.67
2019-05-15T14:36:59.292Z,0.50
2019-05-15T14:39:29.928Z,0.67
2019-05-15T14:41:59.713Z,0.70
2019-05-15T14:44:29.410Z,0.70
2019-05-15T14:46:59.061Z,0.70
2019-05-15T14:49:34.234Z,0.60
2019-05-15T14:52:08.229Z,0.40
2019-05-15T14:54:31.597Z,0.50
2019-05-15T14:57:01.507Z,0.70
2019-05-15T14:59:31.194Z,0.80
2019-05-15T15:02:01.131Z,0.60
2019-05-15T15:04:30.824Z,0.50
2019-05-15T15:07:00.487Z,0.70
2019-05-15T15:09:30.169Z,0.53
2019-05-15T15:11:59.886Z,0.60
2019-05-15T15:14:29.637Z,0.70
2019-05-15T15:16:59.402Z,0.80
2019-05-15T15:19:29.375Z,0.80
2019-05-15T15:21:59.031Z,0.67
2019-05-15T15:24:28.684Z,0.70
2019-05-15T15:26:58.972Z,0.60
2019-05-15T15:29:28.815Z,0.70
2019-05-15T15:31:59.033Z,0.73
2019-05-15T15:34:28.846Z,0.53
2019-05-15T15:36:58.524Z,0.80
2019-05-15T15:39:28.307Z,0.63
2019-05-15T15:41:58.044Z,0.63
2019-05-15T15:44:28.233Z,0.60
2019-05-15T15:46:59.099Z,0.63
2019-05-15T15:49:29.194Z,0.63
2019-05-15T15:51:59.191Z,0.60
2019-05-15T15:54:28.846Z,0.60
2019-05-15T15:56:58.524Z,0.50
2019-05-15T15:59:28.939Z,0.60
2019-05-15T16:01:59.830Z,0.70
2019-05-15T16:04:29.983Z,0.60
2019-05-15T16:06:59.682Z,0.80
2019-05-15T16:09:29.332Z,0.70
2019-05-15T16:11:58.998Z,0.50
2019-05-15T16:14:28.854Z,0.90
2019-05-15T16:16:58.595Z,0.77
2019-05-15T16:19:28.492Z,0.70
2019-05-15T16:21:59.573Z,0.60
2019-05-15T16:24:29.442Z,0.60
2019-05-15T16:27:00.886Z,0.60
2019-05-15T16:29:30.845Z,0.50
2019-05-15T16:32:00.525Z,0.70
2019-05-15T16:34:30.186Z,0.60
2019-05-15T16:36:59.859Z,0.50
2019-05-15T16:39:29.509Z,0.77
2019-05-15T16:41:59.540Z,0.70
2019-05-15T16:44:30.352Z,0.50
2019-05-15T16:47:00.019Z,0.60
2019-05-15T16:49:29.751Z,0.63
2019-05-15T16:51:59.427Z,0.47
2019-05-15T16:54:29.140Z,0.60
2019-05-15T16:56:59.615Z,0.50
2019-05-15T16:59:35.544Z,0.60
2019-05-15T17:02:01.035Z,0.40
2019-05-15T17:04:30.673Z,0.53
2019-05-15T17:07:00.357Z,0.60
2019-05-15T17:09:30.016Z,0.40
2019-05-15T17:11:59.743Z,0.50
2019-05-15T17:14:29.457Z,0.50
2019-05-15T17:17:00.122Z,0.50
2019-05-15T17:19:29.802Z,0.57
2019-05-15T17:21:59.501Z,0.60
2019-05-15T17:24:29.246Z,0.50
2019-05-15T17:26:59.758Z,0.57
2019-05-15T17:29:29.587Z,0.60
2019-05-15T17:31:59.483Z,0.60
2019-05-15T17:34:29.190Z,0.63
2019-05-15T17:36:58.973Z,0.50
2019-05-15T17:39:36.865Z,0.70
2019-05-15T17:42:00.146Z,0.50
2019-05-15T17:44:29.854Z,0.60
2019-05-15T17:46:59.614Z,0.60
2019-05-15T17:49:29.292Z,0.50
2019-05-15T17:51:59.068Z,0.70
2019-05-15T17:54:29.711Z,0.60
2019-05-15T17:56:59.391Z,0.43
2019-05-15T17:59:29.146Z,0.60
2019-05-15T18:01:59.526Z,0.80
2019-05-15T18:04:29.443Z,0.57
2019-05-15T18:06:59.273Z,0.53
2019-05-15T18:09:29.088Z,0.57
2019-05-15T18:11:58.842Z,0.60
2019-05-15T18:14:28.742Z,0.50
2019-05-15T18:16:58.707Z,0.40
2019-05-15T18:19:29.498Z,0.50
2019-05-15T18:21:59.390Z,0.60
2019-05-15T18:24:29.221Z,0.70
2019-05-15T18:26:58.906Z,0.57
2019-05-15T18:29:30.094Z,0.57
2019-05-15T18:31:59.798Z,0.50
2019-05-15T18:34:29.544Z,0.40
2019-05-15T18:36:59.247Z,0.40
2019-05-15T18:39:29.030Z,0.30
2019-05-15T18:41:58.680Z,0.60
2019-05-15T18:44:28.752Z,0.60
2019-05-15T18:46:59.437Z,0.33
2019-05-15T18:49:29.513Z,0.53
2019-05-15T18:51:59.602Z,0.63
2019-05-15T18:54:29.292Z,0.67
2019-05-15T18:56:58.976Z,0.40
2019-05-15T18:59:28.838Z,0.50
2019-05-15T19:01:58.723Z,0.40
2019-05-15T19:04:29.804Z,0.60
2019-05-15T19:07:01.248Z,0.50
2019-05-15T19:09:31.368Z,0.40
2019-05-15T19:12:01.038Z,0.60
2019-05-15T19:14:30.994Z,0.40
2019-05-15T19:17:00.677Z,0.53
2019-05-15T19:19:30.340Z,0.40
2019-05-15T19:22:00.122Z,0.60
2019-05-15T19:24:29.825Z,0.40
2019-05-15T19:26:59.569Z,0.50
2019-05-15T19:29:29.250Z,0.47
2019-05-15T19:31:59.326Z,0.23
2019-05-15T19:34:32.009Z,0.60
2019-05-15T19:37:01.681Z,0.50
2019-05-15T19:39:31.606Z,0.50
2019-05-15T19:42:01.301Z,0.60
2019-05-15T19:44:31.352Z,0.50
2019-05-15T19:47:01.024Z,0.60
2019-05-15T19:49:30.774Z,0.67
2019-05-15T19:52:00.717Z,0.50
2019-05-15T19:54:30.787Z,0.70
2019-05-15T19:57:00.675Z,0.50
2019-05-15T19:59:30.379Z,0.60
2019-05-15T20:02:00.383Z,0.47
2019-05-15T20:04:30.225Z,0.40
2019-05-15T20:07:00.960Z,0.60
2019-05-15T20:09:30.644Z,0.60
2019-05-15T20:12:00.577Z,0.57
2019-05-15T20:14:30.402Z,0.50
2019-05-15T20:17:00.422Z,0.50
2019-05-15T20:19:30.430Z,0.60
2019-05-15T20:22:00.092Z,0.50
2019-05-15T20:24:31.087Z,0.70
2019-05-15T20:27:00.812Z,0.70
2019-05-15T20:29:30.908Z,0.70
2019-05-15T20:32:00.595Z,0.70
2019-05-15T20:34:30.283Z,0.90
2019-05-15T20:37:00.041Z,0.70
2019-05-15T20:39:29.884Z,0.57
2019-05-15T20:41:59.601Z,0.67
2019-05-15T20:44:29.364Z,0.67
2019-05-15T20:46:59.198Z,0.70
2019-05-15T20:49:29.195Z,0.90
2019-05-15T20:51:58.867Z,0.40
2019-05-15T20:54:28.586Z,0.40
2019-05-15T20:56:58.482Z,0.63
2019-05-15T20:59:29.151Z,0.60
2019-05-15T21:01:59.454Z,0.80
2019-05-15T21:04:29.436Z,0.70
2019-05-15T21:06:59.214Z,0.60
2019-05-15T21:09:51.121Z,0.60
2019-05-15T21:12:20.976Z,0.60
2019-05-15T21:14:50.686Z,0.60
2019-05-15T21:17:20.530Z,0.80
2019-05-15T21:19:50.221Z,0.50
2019-05-15T21:22:19.905Z,0.57
2019-05-15T21:24:49.837Z,0.80
2019-05-15T21:27:24.190Z,0.60
2019-05-15T21:29:50.906Z,0.60
2019-05-15T21:32:20.880Z,0.57
2019-05-15T21:34:50.571Z,0.80
2019-05-15T21:37:20.259Z,0.60
2019-05-15T21:39:49.947Z,0.50
2019-05-15T21:42:19.723Z,0.50
2019-05-15T21:44:49.464Z,0.60
2019-05-15T21:47:19.305Z,0.90
2019-05-15T21:49:49.058Z,0.70
2019-05-15T21:52:20.710Z,0.63
2019-05-15T21:54:50.457Z,0.70
2019-05-15T21:57:32.945Z,0.73
2019-05-15T21:59:51.812Z,0.60
2019-05-15T22:02:21.564Z,0.60
2019-05-15T22:04:55.978Z,0.70
2019-05-15T22:07:23.210Z,0.73
2019-05-15T22:09:53.024Z,0.80
2019-05-15T22:12:22.774Z,0.70
2019-05-15T22:14:52.500Z,0.50
2019-05-15T22:17:22.237Z,0.90
2019-05-15T22:19:52.159Z,0.60
2019-05-15T22:22:21.934Z,0.70
2019-05-15T22:24:51.717Z,0.60
2019-05-15T22:27:22.373Z,0.80
2019-05-15T22:29:52.194Z,0.60
2019-05-15T22:32:21.860Z,0.60
2019-05-15T22:35:05.660Z,0.50
2019-05-15T22:37:23.133Z,0.83
2019-05-15T22:39:52.811Z,0.70
2019-05-15T22:42:22.562Z,0.80
2019-05-15T22:44:52.380Z,0.60
2019-05-15T22:47:22.069Z,0.53
2019-05-15T22:49:51.738Z,0.67
2019-05-15T22:52:21.588Z,1.03
2019-05-15T22:54:51.362Z,0.80
2019-05-15T22:57:21.053Z,0.70
2019-05-15T22:59:50.840Z,0.60
2019-05-15T23:02:20.502Z,0.60
2019-05-15T23:04:50.174Z,0.77
2019-05-15T23:07:19.878Z,0.83
2019-05-15T23:09:49.641Z,0.60
2019-05-15T23:12:19.286Z,0.80
2019-05-15T23:14:49.025Z,0.63
2019-05-15T23:17:18.775Z,0.80
2019-05-15T23:19:48.688Z,0.67
2019-05-15T23:22:18.696Z,0.50
2019-05-15T23:24:48.729Z,0.80
2019-05-15T23:27:18.452Z,0.60
2019-05-15T23:29:49.093Z,0.60
2019-05-15T23:32:19.066Z,0.60
2019-05-15T23:34:49.237Z,0.60
2019-05-15T23:37:19.019Z,0.90
2019-05-15T23:39:49.753Z,0.90
2019-05-15T23:42:19.435Z,0.60
2019-05-15T23:44:49.115Z,0.60
2019-05-15T23:47:18.812Z,0.63
2019-05-15T23:49:50.102Z,0.70
2019-05-15T23:52:19.792Z,0.60
2019-05-15T23:54:49.449Z,0.40
2019-05-15T23:57:19.142Z,0.80
2019-05-15T23:59:48.796Z,0.90
